Terminal Aerodrome Forecast
Issued by NWS

Home | Current Version | Previous Version | Text Only | Print | Product List | Glossary On
Versions: 1 2 3 4 5 6 7 8 9 10 11 12 13 14 15 16 17 18 19 20 21 22 23 24 25 26 27 28 29 30 31 32 33 34 35 36 37
755
FTUS46 KOTX 221739
TAFSFF
TAF
KSFF 221739Z 2218/2318 26015G26KT P6SM SCT040 BKN080
     FM230200 25010G20KT P6SM SCT200
     FM230600 27005KT P6SM SKC
     FM231400 VRB03KT 5SM BR VCFG BKN008=

USA.gov is the U.S. government's official web portal to all federal, state and local government web resources and services.